Plymouth Township, Ohio
Current Conditions -  °F | °C
As of 7:11 PM on Thursday 27 Nov 2014 (Local Time) from KHZY Reporting Station
Light Snow Light Snow  
Wind Chill: 30°   Ceiling: 2300
Heat Index: 30°   Visibility: 3mi
Dew Point: 27°   Wind: 3mph
Humidity: 88%   Direction: 290°WNW
Pressure: 30.16"   Gusts: NA
Location:  41.8515°N, 80.79°W
Report Text: KHZY 280011Z AUTO 29003KT 3SM -SN BR FEW014 BKN023 OVC034 M01/M03 A3016 RMK AO2 P0001 T10111028
Loading
Personal Weather Stations






























Interactive Weather Map New forecast layout! Learn more

10-Day Weather Forecast

Advertisements
Track Severe Weather on mobile